createdAt,value
2018-12-16T00:01:41.040Z,-1.42
2018-12-16T00:06:44.628Z,-1.46
2018-12-16T00:11:48.245Z,-1.45
2018-12-16T00:16:51.831Z,-1.46
2018-12-16T00:21:55.732Z,-1.45
2018-12-16T00:27:11.067Z,-1.45
2018-12-16T00:32:14.731Z,-1.43
2018-12-16T00:37:18.406Z,-1.48
2018-12-16T00:42:21.823Z,-1.48
2018-12-16T00:47:25.372Z,-1.43
2018-12-16T00:52:29.280Z,-1.46
2018-12-16T00:57:32.900Z,-1.45
2018-12-16T01:02:42.036Z,-1.48
2018-12-16T01:07:45.693Z,-1.38
2018-12-16T01:12:49.192Z,-1.44
2018-12-16T01:17:52.720Z,-1.43
2018-12-16T01:22:56.196Z,-1.49
2018-12-16T01:27:59.632Z,-1.46
2018-12-16T01:33:03.172Z,-1.48
2018-12-16T01:38:06.976Z,-1.56
2018-12-16T01:43:10.561Z,-1.59
2018-12-16T01:48:14.269Z,-1.53
2018-12-16T01:53:17.679Z,-1.53
2018-12-16T01:58:21.665Z,-1.55
2018-12-16T02:03:25.428Z,-1.51
2018-12-16T02:08:28.900Z,-1.52
2018-12-16T02:13:32.373Z,-1.53
2018-12-16T02:18:36.045Z,-1.52
2018-12-16T02:23:39.796Z,-1.52
2018-12-16T02:28:43.256Z,-1.61
2018-12-16T02:33:46.673Z,-1.59
2018-12-16T02:38:50.342Z,-1.57
2018-12-16T02:43:54.160Z,-1.55
2018-12-16T02:48:57.614Z,-1.60
2018-12-16T02:54:01.068Z,-1.60
2018-12-16T02:59:04.688Z,-1.64
2018-12-16T03:04:08.121Z,-1.66
2018-12-16T03:09:11.832Z,-1.64
2018-12-16T03:14:15.258Z,-1.55
2018-12-16T03:19:18.756Z,-1.63
2018-12-16T03:24:22.281Z,-1.64
2018-12-16T03:29:25.738Z,-1.61
2018-12-16T03:34:29.241Z,-1.67
2018-12-16T03:39:32.667Z,-1.62
2018-12-16T03:44:36.127Z,-1.62
2018-12-16T03:49:39.853Z,-1.53
2018-12-16T03:54:43.379Z,-1.61
2018-12-16T03:59:47.180Z,-1.73
2018-12-16T04:04:50.694Z,-1.80
2018-12-16T04:09:54.162Z,-1.98
2018-12-16T04:14:57.669Z,-1.96
2018-12-16T04:20:01.191Z,-2.15
2018-12-16T04:25:05.340Z,-2.22
2018-12-16T04:30:08.950Z,-2.35
2018-12-16T04:35:12.500Z,-2.40
2018-12-16T04:40:16.071Z,-2.45
2018-12-16T04:45:19.488Z,-2.44
2018-12-16T04:50:23.145Z,-2.49
2018-12-16T04:55:26.662Z,-2.43
2018-12-16T05:00:30.491Z,-2.55
2018-12-16T05:05:34.104Z,-2.61
2018-12-16T05:10:37.799Z,-2.52
2018-12-16T05:15:41.217Z,-2.49
2018-12-16T05:20:44.700Z,-2.53
2018-12-16T05:25:48.468Z,-2.50
2018-12-16T05:30:52.015Z,-2.47
2018-12-16T05:35:55.433Z,-2.45
2018-12-16T05:40:59.039Z,-2.40
2018-12-16T05:46:02.521Z,-2.42
2018-12-16T05:51:06.036Z,-2.50
2018-12-16T05:56:09.752Z,-2.43
2018-12-16T06:01:13.224Z,-2.49
2018-12-16T06:06:16.666Z,-2.43
2018-12-16T06:11:20.144Z,-2.44
2018-12-16T06:16:24.133Z,-2.45
2018-12-16T06:21:27.644Z,-2.48
2018-12-16T06:26:31.408Z,-2.42
2018-12-16T06:31:34.828Z,-2.48
2018-12-16T06:36:38.488Z,-2.51
2018-12-16T06:41:42.060Z,-2.51
2018-12-16T06:46:45.618Z,-2.48
2018-12-16T06:51:49.132Z,-2.41
2018-12-16T06:56:52.712Z,-2.61
2018-12-16T07:01:56.208Z,-2.41
2018-12-16T07:06:59.724Z,-2.44
2018-12-16T07:12:03.399Z,-2.49
2018-12-16T07:17:07.020Z,-2.49
2018-12-16T07:22:10.588Z,-2.44
2018-12-16T07:27:14.245Z,-2.40
2018-12-16T07:32:17.708Z,-2.31
2018-12-16T07:37:21.248Z,-2.49
2018-12-16T07:42:24.937Z,-2.39
2018-12-16T07:47:28.433Z,-2.36
2018-12-16T07:52:31.863Z,-2.32
2018-12-16T07:57:35.536Z,-2.35
2018-12-16T08:02:39.116Z,-2.31
2018-12-16T08:07:42.695Z,-2.34
2018-12-16T08:12:46.384Z,-2.32
2018-12-16T08:17:49.836Z,-2.25
2018-12-16T08:22:53.440Z,-2.17
2018-12-16T08:27:57.065Z,-2.01
2018-12-16T08:33:00.493Z,-2.00
2018-12-16T08:38:04.037Z,-1.92
2018-12-16T08:43:07.444Z,-1.85
2018-12-16T08:48:11.244Z,-1.90
2018-12-16T08:53:14.916Z,-1.88
2018-12-16T08:58:18.357Z,-1.87
2018-12-16T09:03:21.787Z,-1.86
2018-12-16T09:08:25.255Z,-1.80
2018-12-16T09:13:28.864Z,-1.86
2018-12-16T09:18:32.661Z,-1.86
2018-12-16T09:23:36.207Z,-1.55
2018-12-16T09:28:40.703Z,-1.63
2018-12-16T09:33:44.581Z,-1.70
2018-12-16T09:38:48.291Z,-1.62
2018-12-16T09:43:51.896Z,-1.43
2018-12-16T09:48:55.628Z,-1.28
2018-12-16T09:53:59.232Z,-1.29
2018-12-16T09:59:02.655Z,-1.11
2018-12-16T10:04:06.259Z,-1.07
2018-12-16T10:09:09.936Z,-1.06
2018-12-16T10:14:13.443Z,-1.15
2018-12-16T10:19:16.904Z,-1.04
2018-12-16T10:24:20.420Z,-1.06
2018-12-16T10:29:24.105Z,-0.95
2018-12-16T10:34:27.515Z,-1.07
2018-12-16T10:39:31.172Z,-1.02
2018-12-16T10:44:34.621Z,-0.90
2018-12-16T10:49:38.040Z,-1.00
2018-12-16T10:54:41.593Z,-0.73
2018-12-16T10:59:45.126Z,-0.90
2018-12-16T11:04:48.538Z,-0.90
2018-12-16T11:09:52.151Z,-0.70
2018-12-16T11:14:56.488Z,-0.57
2018-12-16T11:20:00.109Z,-0.47
2018-12-16T11:25:05.857Z,-0.57
2018-12-16T11:30:10.277Z,-0.62
2018-12-16T11:35:14.076Z,-0.70
2018-12-16T11:40:17.663Z,-0.70
2018-12-16T11:45:21.464Z,-0.61
2018-12-16T11:50:25.392Z,-0.63
2018-12-16T11:55:29.515Z,-0.57
2018-12-16T12:00:32.921Z,-0.44
2018-12-16T12:05:36.429Z,-0.45
2018-12-16T12:10:40.059Z,-0.37
2018-12-16T12:15:43.575Z,-0.47
2018-12-16T12:20:47.089Z,-0.33
2018-12-16T12:25:50.651Z,-0.34
2018-12-16T12:30:54.504Z,-0.26
2018-12-16T12:35:57.952Z,-0.24
2018-12-16T12:41:01.369Z,-0.24
2018-12-16T12:46:05.025Z,-0.30
2018-12-16T12:51:08.488Z,-0.15
2018-12-16T12:56:12.049Z,-0.24
2018-12-16T13:01:15.505Z,-0.18
2018-12-16T13:06:19.072Z,-0.19
2018-12-16T13:11:22.853Z,-0.22
2018-12-16T13:16:26.356Z,-0.10
2018-12-16T13:21:30.244Z,-0.12
2018-12-16T13:26:34.317Z,-0.08
2018-12-16T13:31:37.884Z,-0.11
2018-12-16T13:36:41.449Z,-0.15
2018-12-16T13:41:45.052Z,-0.11
2018-12-16T13:46:48.532Z,-0.09
2018-12-16T13:51:52.266Z,-0.18
2018-12-16T13:56:55.696Z,-0.11
2018-12-16T14:01:59.156Z,-0.09
2018-12-16T14:07:02.684Z,-0.06
2018-12-16T14:12:06.287Z,-0.22
2018-12-16T14:17:09.756Z,-0.22
2018-12-16T14:22:13.347Z,-0.30
2018-12-16T14:27:16.789Z,-0.15
2018-12-16T14:32:20.520Z,-0.15
2018-12-16T14:37:24.109Z,-0.25
2018-12-16T14:42:27.696Z,-0.21
2018-12-16T14:47:31.308Z,-0.22
2018-12-16T14:52:34.812Z,-0.29
2018-12-16T14:57:38.212Z,-0.30
2018-12-16T15:02:41.752Z,-0.31
2018-12-16T15:07:45.264Z,-0.32
2018-12-16T15:12:48.744Z,-0.31
2018-12-16T15:17:52.454Z,-0.24
2018-12-16T15:22:56.168Z,-0.21
2018-12-16T15:27:59.932Z,-0.20
2018-12-16T15:33:03.368Z,-0.26
2018-12-16T15:38:06.953Z,-0.30
2018-12-16T15:43:10.459Z,-0.28
2018-12-16T15:48:14.048Z,-0.36
2018-12-16T15:53:17.768Z,-0.28
2018-12-16T15:58:21.337Z,-0.17
2018-12-16T16:03:25.004Z,-0.21
2018-12-16T16:08:28.568Z,-0.23
2018-12-16T16:13:32.035Z,-0.19
2018-12-16T16:18:35.756Z,-0.20
2018-12-16T16:23:39.264Z,-0.17
2018-12-16T16:28:42.696Z,-0.21
2018-12-16T16:33:46.263Z,-0.11
2018-12-16T16:38:49.804Z,-0.24
2018-12-16T16:43:53.528Z,-0.20
2018-12-16T16:48:57.096Z,-0.19
2018-12-16T16:54:00.540Z,-0.24
2018-12-16T16:59:04.100Z,-0.26
2018-12-16T17:04:07.647Z,-0.33
2018-12-16T17:09:11.152Z,-0.18
2018-12-16T17:14:14.930Z,-0.11
2018-12-16T17:19:18.562Z,-0.10
2018-12-16T17:24:22.203Z,-0.18
2018-12-16T17:29:25.771Z,-0.29
2018-12-16T17:34:29.379Z,-0.17
2018-12-16T17:39:33.344Z,-0.17
2018-12-16T17:44:36.835Z,-0.19
2018-12-16T17:49:40.456Z,-0.28
2018-12-16T17:54:44.768Z,-0.28
2018-12-16T17:59:48.719Z,-0.31
2018-12-16T18:04:52.255Z,-0.24
2018-12-16T18:09:55.859Z,-0.22
2018-12-16T18:14:59.379Z,-0.17
2018-12-16T18:20:03.305Z,-0.17
2018-12-16T18:25:07.041Z,-0.13
2018-12-16T18:30:11.088Z,-0.21
2018-12-16T18:35:15.057Z,-0.13
2018-12-16T18:40:18.868Z,-0.22
2018-12-16T18:45:22.284Z,-0.13
2018-12-16T18:50:25.859Z,-0.12
2018-12-16T18:55:29.273Z,-0.13
2018-12-16T19:00:32.780Z,-0.07
2018-12-16T19:05:36.274Z,0.01
2018-12-16T19:10:39.796Z,0.02
2018-12-16T19:15:43.838Z,0.02
2018-12-16T19:20:47.391Z,0.00
2018-12-16T19:25:50.966Z,0.00
2018-12-16T19:30:54.794Z,0.05
2018-12-16T19:35:58.456Z,0.08
2018-12-16T19:41:01.967Z,0.15
2018-12-16T19:46:05.689Z,0.09
2018-12-16T19:51:09.124Z,0.06
2018-12-16T19:56:12.605Z,0.11
2018-12-16T20:01:16.073Z,0.20
2018-12-16T20:06:24.972Z,0.15
2018-12-16T20:11:28.471Z,0.14
2018-12-16T20:16:32.039Z,0.15
2018-12-16T20:21:35.712Z,0.16
2018-12-16T20:26:39.259Z,0.13
2018-12-16T20:31:42.856Z,0.13
2018-12-16T20:36:46.395Z,0.22
2018-12-16T20:41:49.864Z,0.12
2018-12-16T20:46:53.520Z,0.20
2018-12-16T20:51:57.011Z,0.17
2018-12-16T20:57:00.729Z,0.21
2018-12-16T21:02:04.352Z,0.20
2018-12-16T21:07:07.896Z,0.22
2018-12-16T21:13:18.956Z,0.24
2018-12-16T21:18:25.476Z,0.13
2018-12-16T21:23:29.836Z,0.23
2018-12-16T21:28:33.369Z,0.28
2018-12-16T21:33:37.178Z,0.35
2018-12-16T21:38:40.925Z,0.38
2018-12-16T21:43:44.544Z,0.34
2018-12-16T21:48:47.948Z,0.43
2018-12-16T21:53:51.776Z,0.46
2018-12-16T21:58:55.353Z,0.36
2018-12-16T22:03:58.840Z,0.40
2018-12-16T22:09:02.480Z,0.40
2018-12-16T22:14:06.184Z,0.45
2018-12-16T22:19:09.668Z,0.48
2018-12-16T22:24:13.301Z,0.48
2018-12-16T22:29:16.735Z,0.43
2018-12-16T22:34:20.157Z,0.49
2018-12-16T22:39:24.841Z,0.49
2018-12-16T22:44:28.476Z,0.48
2018-12-16T22:49:31.904Z,0.48
2018-12-16T22:54:35.441Z,0.43
2018-12-16T22:59:38.952Z,0.53
2018-12-16T23:04:42.485Z,0.51
2018-12-16T23:09:46.024Z,0.56
2018-12-16T23:14:51.066Z,0.61
2018-12-16T23:20:00.232Z,0.60
2018-12-16T23:25:04.094Z,0.60
2018-12-16T23:30:08.539Z,0.64
2018-12-16T23:35:12.035Z,0.64
2018-12-16T23:40:15.500Z,0.62
2018-12-16T23:45:19.223Z,0.62
2018-12-16T23:50:22.692Z,0.66
2018-12-16T23:55:26.373Z,0.68
